Latest Weather Observations for Penrith

IDN60801

Issued at 4:35 pm EST Tuesday 29 July 2014 (issued every 30 minutes, with the page automatically refreshed every 10 minutes)

About weather observations | Map of weather stations | Latest weather observations for NSW | Other Formats
Station Details ID: 067113 Name: PENRITH LAKES AWS Lat: -33.72 Lon: 150.68 Height: 24.7 m
Data from the previous 72 hours. | See also: Recent months at Penrith
Date/Time
EST
Temp
°C
App
Temp
°C
Dew
Point
Rel
Hum
%
Delta-T
°C
Wind Press
QNH
hPa
Press
MSL
hPa
Rain
since 9 am
mm
Dir
 
Spd
km/h
Gust
km/h
Spd
kts
Gust
kts
29/04:30pm 21.1 16.0 0.9 26 9.2 WNW 17 24 9 13 - - 0.0
29/04:00pm 22.0 16.4 -0.1 23 9.9 WNW 19 30 10 16 - - 0.0
29/03:30pm 22.4 16.8 0.9 24 9.9 NW 20 30 11 16 - - 0.0
29/03:00pm 22.7 17.8 1.7 25 9.8 NW 17 28 9 15 - - 0.0
29/02:30pm 22.7 16.8 1.7 25 9.8 NW 22 32 12 17 - - 0.0
29/02:00pm 22.8 17.3 0.6 23 10.2 WNW 19 30 10 16 - - 0.0
29/01:30pm 22.7 17.1 1.1 24 10.0 NW 20 32 11 17 - - 0.0
29/01:00pm 22.6 17.6 1.6 25 9.8 NW 17 26 9 14 - - 0.0
29/12:30pm 22.0 14.6 1.6 26 9.5 NW 30 39 16 21 - - 0.0
29/12:00pm 19.9 14.9 3.6 34 7.7 N 19 28 10 15 - - 0.0
29/11:30am 18.7 11.9 3.3 36 7.2 N 28 35 15 19 - - 0.0
29/11:00am 17.3 10.9 3.2 39 6.5 N 26 33 14 18 - - 0.0
29/10:30am 16.8 9.9 2.8 39 6.4 N 28 41 15 22 - - 0.0
29/10:00am 16.3 11.1 3.4 42 5.9 N 20 30 11 16 - - 0.0
29/09:30am 15.6 10.0 3.7 45 5.5 N 22 30 12 16 - - 0.0
29/09:00am 12.4 9.2 5.3 62 3.3 N 11 13 6 7 - - 0.0
29/08:30am 11.5 9.2 4.9 64 3.0 N 6 9 3 5 - - 0.0
29/08:00am 10.3 7.5 5.1 70 2.4 N 9 13 5 7 - - 0.0
29/07:30am 9.7 7.3 5.3 74 2.0 N 7 9 4 5 - - 0.0
29/07:00am 9.8 7.6 5.2 73 2.1 N 6 7 3 4 - - 0.0
29/06:30am 10.4 7.9 4.5 67 2.6 N 7 9 4 5 - - 0.0
29/06:00am 10.4 7.1 4.5 67 2.6 NNE 11 13 6 7 - - 0.0
29/05:30am 10.3 7.9 5.1 70 2.4 N 7 11 4 6 - - 0.0
29/05:00am 9.7 7.0 5.5 75 1.9 N 9 9 5 5 - - 0.0
29/04:30am 10.1 7.3 5.3 72 2.2 N 9 9 5 5 - - 0.0
29/04:00am 10.3 7.8 4.5 67 2.6 N 7 9 4 5 - - 0.0
29/03:30am 11.4 8.8 4.4 62 3.2 N 7 11 4 6 - - 0.0
29/03:00am 10.8 7.7 5.6 70 2.4 N 11 15 6 8 - - 0.0
29/02:30am 10.8 7.3 5.6 70 2.4 N 13 15 7 8 - - 0.0
29/02:00am 11.4 7.4 5.1 65 2.9 N 15 20 8 11 - - 0.0
29/01:30am 11.4 7.4 5.1 65 2.9 N 15 19 8 10 - - 0.0
29/01:00am 10.2 7.9 5.6 73 2.1 NNW 7 13 4 7 - - 0.0
29/12:30am 12.1 8.2 5.3 63 3.1 N 15 19 8 10 - - 0.0
29/12:00am 11.7 8.9 5.1 64 3.0 NNE 9 13 5 7 - - 0.0
 
Date/Time
EST
Temp
°C
App
Temp
°C
Dew
Point
Rel
Hum
%
Delta-T
°C
Wind Press
QNH
hPa
Press
MSL
hPa
Rain
since 9 am
mm
Dir
 
Spd
km/h
Gust
km/h
Spd
kts
Gust
kts
28/11:30pm 11.0 8.9 6.0 71 2.3 N 6 7 3 4 - - 0.0
28/11:00pm 11.1 8.9 6.0 71 2.4 N 7 11 4 6 - - 0.0
28/10:30pm 10.7 8.7 6.1 73 2.1 N 6 9 3 5 - - 0.0
28/10:00pm 10.9 8.9 6.3 73 2.2 NNW 6 7 3 4 - - 0.0
28/09:30pm 11.0 8.8 6.4 73 2.2 NNW 7 13 4 7 - - 0.0
28/09:00pm 10.3 9.1 6.3 76 1.9 N 2 6 1 3 - - 0.0
28/08:30pm 10.8 9.7 7.1 78 1.8 ENE 2 6 1 3 - - 0.0
28/08:00pm 11.0 10.4 7.5 79 1.7 CALM 0 0 0 0 - - 0.0
28/07:30pm 12.0 10.6 7.1 72 2.4 N 4 4 2 2 - - 0.0
28/07:00pm 12.7 11.9 6.5 66 3.0 CALM 0 4 0 2 - - 0.0
28/06:30pm 12.8 11.4 7.3 69 2.7 NW 4 6 2 3 - - 0.0
28/06:00pm 12.9 11.8 6.7 66 3.0 WNW 2 6 1 3 - - 0.0
28/05:30pm 14.1 12.6 6.7 61 3.6 WNW 4 6 2 3 - - 0.0
28/05:00pm 15.1 14.0 6.7 57 4.1 W 2 4 1 2 - - 0.0
28/04:30pm 15.9 14.4 4.9 48 5.2 W 2 6 1 3 - - 0.0
28/04:00pm 16.6 15.6 5.6 48 5.3 CALM 0 0 0 0 - - 0.0
28/03:30pm 17.3 16.1 4.6 43 6.0 CALM 0 0 0 0 - - 0.0
28/03:00pm 17.6 16.1 3.1 38 6.7 CALM 0 4 0 2 - - 0.0
28/02:30pm 17.8 16.0 3.3 38 6.7 NE 2 6 1 3 - - 0.0
28/02:00pm 17.5 15.3 3.4 39 6.5 N 4 7 2 4 - - 0.0
28/01:30pm 17.3 15.3 2.5 37 6.7 NW 2 4 1 2 - - 0.0
28/01:00pm 17.5 15.2 2.7 37 6.8 N 4 6 2 3 - - 0.0
28/12:30pm 17.3 14.9 2.1 36 6.9 N 4 7 2 4 - - 0.0
28/12:00pm 17.0 14.6 2.2 37 6.7 NE 4 6 2 3 - - 0.0
28/11:30am 15.8 14.5 6.0 52 4.7 NNW 2 4 1 2 - - 0.0
28/11:00am 14.1 12.8 6.2 59 3.8 N 2 4 1 2 - - 0.0
28/10:30am 12.2 10.8 7.1 71 2.5 NW 4 6 2 3 - - 0.0
28/10:00am 9.9 8.0 6.6 80 1.5 NW 6 7 3 4 - - 0.0
28/09:30am 8.9 6.6 5.6 80 1.5 NNW 7 9 4 5 - - 0.0
28/09:00am 9.0 7.1 6.6 85 1.1 N 6 7 3 4 - - 0.2
28/08:30am 8.3 6.6 6.1 86 1.0 N 4 7 2 4 - - 0.2
28/08:00am 7.3 5.6 5.8 90 0.7 S 4 6 2 3 - - 0.2
28/07:30am 6.2 4.7 4.8 91 0.6 WSW 2 4 1 2 - - 0.2
28/07:00am 5.6 3.6 4.4 92 0.5 WSW 4 6 2 3 - - 0.2
28/06:30am 5.9 4.0 4.7 92 0.5 WSW 4 6 2 3 - - 0.2
28/06:00am 6.2 4.3 4.7 90 0.6 SSW 4 6 2 3 - - 0.2
28/05:30am 6.4 4.5 4.7 89 0.7 N 4 6 2 3 - - 0.2
28/05:00am 6.8 4.4 5.1 89 0.7 N 7 9 4 5 - - 0.2
28/04:30am 6.3 4.0 4.6 89 0.7 N 6 11 3 6 - - 0.2
28/04:00am 6.3 3.8 4.5 88 0.8 NNE 7 9 4 5 - - 0.2
28/03:30am 7.2 4.8 5.3 88 0.8 NNW 7 11 4 6 - - 0.2
28/03:00am 6.9 5.7 4.4 84 1.1 CALM 0 0 0 0 - - 0.2
28/02:30am 7.1 5.9 4.4 83 1.2 CALM 0 0 0 0 - - 0.2
28/02:00am 7.5 6.2 4.3 80 1.4 CALM 0 0 0 0 - - 0.2
28/01:30am 7.5 6.3 4.5 81 1.3 CALM 0 2 0 1 - - 0.2
28/01:00am 7.1 4.7 4.2 82 1.3 SSE 6 7 3 4 - - 0.2
28/12:30am 7.8 5.6 5.4 85 1.1 SE 6 7 3 4 - - 0.2
28/12:00am 7.5 5.3 5.5 87 0.9 S 6 7 3 4 - - 0.2
 
Date/Time
EST
Temp
°C
App
Temp
°C
Dew
Point
Rel
Hum
%
Delta-T
°C
Wind Press
QNH
hPa
Press
MSL
hPa
Rain
since 9 am
mm
Dir
 
Spd
km/h
Gust
km/h
Spd
kts
Gust
kts
27/11:30pm 7.6 5.8 5.4 86 1.0 N 4 6 2 3 - - 0.2
27/11:00pm 8.6 7.6 5.4 80 1.4 CALM 0 4 0 2 - - 0.2
27/10:30pm 8.8 7.0 5.5 80 1.5 WNW 4 9 2 5 - - 0.2
27/10:00pm 8.7 7.8 6.0 83 1.2 CALM 0 0 0 0 - - 0.2
27/09:30pm 9.6 8.4 6.5 81 1.4 NW 2 4 1 2 - - 0.2
27/09:00pm 10.3 9.1 6.5 77 1.8 WNW 2 6 1 3 - - 0.2
27/08:30pm 11.1 9.8 5.8 70 2.5 NW 2 6 1 3 - - 0.2
27/08:00pm 10.6 8.9 5.8 72 2.2 SW 4 7 2 4 - - 0.2
27/07:30pm 11.4 9.1 5.5 67 2.7 W 7 7 4 4 - - 0.2
27/07:00pm 11.9 9.6 5.5 65 3.0 SSE 7 11 4 6 - - 0.2
27/06:30pm 12.1 10.4 7.6 74 2.2 S 6 7 3 4 - - 0.2
27/06:00pm 14.1 12.4 6.0 58 3.9 E 4 7 2 4 - - 0.2
27/05:30pm 14.7 13.1 8.0 64 3.3 NNW 6 7 3 4 - - 0.2
27/05:00pm 17.7 16.1 6.3 47 5.6 ENE 4 6 2 3 - - 0.2
27/04:30pm 18.7 16.7 4.5 39 6.8 E 4 6 2 3 - - 0.2
27/04:00pm 18.9 16.9 4.3 38 7.0 E 4 6 2 3 - - 0.2
27/03:30pm 20.5 18.0 3.7 33 8.0 NNE 6 7 3 4 - - 0.2
27/03:00pm 20.1 17.6 3.8 34 7.8 E 6 9 3 5 - - 0.2
27/02:30pm 20.3 17.7 3.1 32 8.1 NNE 6 9 3 5 - - 0.2
27/02:00pm 20.7 18.6 3.9 33 8.1 NNE 4 7 2 4 - - 0.2
27/01:30pm 20.2 17.7 3.9 34 7.8 E 6 9 3 5 - - 0.2
27/01:00pm 19.3 16.7 3.1 34 7.6 E 6 11 3 6 - - 0.2
27/12:30pm 18.6 16.5 4.0 38 6.9 SSE 4 7 2 4 - - 0.2
27/12:00pm 17.8 15.8 6.3 47 5.7 NNW 6 9 3 5 - - 0.2
27/11:30am 16.8 15.6 6.6 51 5.0 NNW 2 4 1 2 - - 0.2
27/11:00am 15.4 14.4 7.2 58 4.0 NNW 2 4 1 2 - - 0.2
27/10:30am 13.7 12.2 7.0 64 3.3 NW 4 7 2 4 - - 0.0
27/10:00am 12.5 11.9 7.4 71 2.5 CALM 0 4 0 2 - - 0.0
27/09:30am 11.1 10.5 7.6 79 1.7 CALM 0 0 0 0 - - 0.0
27/09:00am 9.6 9.0 7.2 85 1.1 CALM 0 0 0 0 - - 0.6
27/08:30am 7.2 6.2 5.8 91 0.6 CALM 0 4 0 2 - - 0.6
27/08:00am 6.0 4.9 5.0 93 0.4 CALM 0 4 0 2 - - 0.6
27/07:30am 4.7 3.0 4.0 95 0.3 S 2 4 1 2 - - 0.6
27/07:00am 4.0 1.8 3.3 95 0.3 S 4 6 2 3 - - 0.6
27/06:30am 4.0 1.8 3.3 95 0.3 ESE 4 6 2 3 - - 0.6
27/06:00am 4.4 2.7 3.8 96 0.2 WSW 2 6 1 3 - - 0.6
27/05:30am 4.4 2.3 3.8 96 0.2 NNE 4 6 2 3 - - 0.6
27/05:00am 4.3 2.2 3.7 96 0.2 WNW 4 6 2 3 - - 0.6
27/04:30am 5.2 3.6 4.6 96 0.3 WNW 2 4 1 2 - - 0.6
27/04:00am 5.7 4.2 5.0 95 0.3 WNW 2 4 1 2 - - 0.6
27/03:30am 5.5 4.0 4.8 95 0.3 ENE 2 6 1 3 - - 0.6
27/03:00am 5.6 4.1 4.9 95 0.3 SE 2 4 1 2 - - 0.6
27/02:30am 6.2 4.4 5.5 95 0.3 NNE 4 7 2 4 - - 0.6
27/02:00am 6.1 5.1 5.4 95 0.3 CALM 0 4 0 2 - - 0.6
27/01:30am 6.3 4.9 5.4 94 0.4 SE 2 6 1 3 - - 0.6
27/01:00am 6.8 5.8 5.7 93 0.5 CALM 0 0 0 0 - - 0.6
27/12:30am 7.0 6.1 5.9 93 0.5 CALM 0 0 0 0 - - 0.6
27/12:00am 7.0 6.0 5.8 92 0.5 CALM 0 0 0 0 - - 0.6
 
Date/Time
EST
Temp
°C
App
Temp
°C
Dew
Point
Rel
Hum
%
Delta-T
°C
Wind Press
QNH
hPa
Press
MSL
hPa
Rain
since 9 am
mm
Dir
 
Spd
km/h
Gust
km/h
Spd
kts
Gust
kts
26/11:30pm 7.5 6.5 5.8 89 0.8 CALM 0 2 0 1 - - 0.6
26/11:00pm 7.7 5.5 5.5 86 1.0 WNW 6 7 3 4 - - 0.6
26/10:30pm 8.2 6.9 6.0 86 1.0 SSE 2 4 1 2 - - 0.6
26/10:00pm 8.6 6.9 5.9 83 1.2 SSE 4 4 2 2 - - 0.6
26/09:30pm 10.2 8.3 6.9 80 1.6 NNW 6 7 3 4 - - 0.6
26/09:00pm 10.9 9.2 6.1 72 2.2 W 4 7 2 4 - - 0.6
26/08:30pm 10.8 9.9 6.2 73 2.1 CALM 0 0 0 0 - - 0.6
26/08:00pm 10.8 9.2 6.2 73 2.1 SSW 4 6 2 3 - - 0.6
26/07:30pm 12.5 10.5 6.1 65 3.0 WNW 6 9 3 5 - - 0.6
26/07:00pm 13.9 11.9 4.2 52 4.4 WSW 4 7 2 4 - - 0.6
26/06:30pm 15.3 12.8 3.8 46 5.3 WSW 6 11 3 6 - - 0.6
26/06:00pm 16.1 11.9 3.9 44 5.7 WSW 15 20 8 11 - - 0.6
26/05:30pm 16.3 12.3 5.0 47 5.4 WSW 15 22 8 12 - - 0.6
26/05:00pm 15.6 15.1 9.3 66 3.3 SE 2 6 1 3 - - 0.6

Other Formats:

Comma delimited format used in spreadsheet applications
http://www.bom.gov.au/fwo/IDN60801/IDN60801.94763.axf

JavaScript Object Notation format (JSON) in row-major order
http://www.bom.gov.au/fwo/IDN60801/IDN60801.94763.json